sensor_id;sensor_type;location;lat;lon;timestamp;pressure;altitude;pressure_sealevel;temperature;humidity
26443;BME280;5563;52.296;6.806;2023-04-27T00:01:22;101992.66;;;1.16;82.74
26443;BME280;5563;52.296;6.806;2023-04-27T00:03:49;102002.34;;;1.15;82.85
26443;BME280;5563;52.296;6.806;2023-04-27T00:06:23;102001.56;;;1.10;82.41
26443;BME280;5563;52.296;6.806;2023-04-27T00:08:52;101983.44;;;0.99;82.72
26443;BME280;5563;52.296;6.806;2023-04-27T00:11:39;101990.25;;;1.06;82.57
26443;BME280;5563;52.296;6.806;2023-04-27T00:14:20;102003.44;;;1.05;82.52
26443;BME280;5563;52.296;6.806;2023-04-27T00:16:54;101999.19;;;1.01;82.72
26443;BME280;5563;52.296;6.806;2023-04-27T00:19:28;101986.13;;;0.96;82.88
26443;BME280;5563;52.296;6.806;2023-04-27T00:22:02;101999.94;;;1.06;83.02
26443;BME280;5563;52.296;6.806;2023-04-27T00:24:35;101994.13;;;0.92;82.61
26443;BME280;5563;52.296;6.806;2023-04-27T00:27:02;102013.25;;;0.97;82.92
26443;BME280;5563;52.296;6.806;2023-04-27T00:29:35;101995.22;;;0.82;83.19
26443;BME280;5563;52.296;6.806;2023-04-27T00:32:02;102007.47;;;0.83;83.23
26443;BME280;5563;52.296;6.806;2023-04-27T00:34:38;101989.44;;;0.66;83.34
26443;BME280;5563;52.296;6.806;2023-04-27T00:37:05;102016.34;;;0.77;83.05
26443;BME280;5563;52.296;6.806;2023-04-27T00:39:39;102022.50;;;0.75;83.16
26443;BME280;5563;52.296;6.806;2023-04-27T00:42:13;102020.91;;;0.68;83.34
26443;BME280;5563;52.296;6.806;2023-04-27T00:44:50;101991.63;;;0.46;83.02
26443;BME280;5563;52.296;6.806;2023-04-27T00:47:17;102015.16;;;0.51;83.62
26443;BME280;5563;52.296;6.806;2023-04-27T00:49:51;102027.28;;;0.56;83.36
26443;BME280;5563;52.296;6.806;2023-04-27T00:52:19;102020.38;;;0.52;83.32
26443;BME280;5563;52.296;6.806;2023-04-27T00:54:49;102017.91;;;0.45;83.49
26443;BME280;5563;52.296;6.806;2023-04-27T00:57:24;102031.91;;;0.45;83.74
26443;BME280;5563;52.296;6.806;2023-04-27T00:59:59;102015.47;;;0.36;83.63
26443;BME280;5563;52.296;6.806;2023-04-27T01:02:33;102017.25;;;0.35;83.79
26443;BME280;5563;52.296;6.806;2023-04-27T01:05:01;102023.34;;;0.36;83.96
26443;BME280;5563;52.296;6.806;2023-04-27T01:07:41;102013.09;;;0.24;83.92
26443;BME280;5563;52.296;6.806;2023-04-27T01:10:08;102026.88;;;0.35;83.90
26443;BME280;5563;52.296;6.806;2023-04-27T01:12:48;102028.69;;;0.31;84.01
26443;BME280;5563;52.296;6.806;2023-04-27T01:15:23;102028.72;;;0.30;84.00
26443;BME280;5563;52.296;6.806;2023-04-27T01:18:00;101993.28;;;0.11;83.72
26443;BME280;5563;52.296;6.806;2023-04-27T01:20:28;102008.72;;;0.24;84.16
26443;BME280;5563;52.296;6.806;2023-04-27T01:23:03;102029.41;;;0.38;84.32
26443;BME280;5563;52.296;6.806;2023-04-27T01:25:30;102012.13;;;0.29;84.03
26443;BME280;5563;52.296;6.806;2023-04-27T01:28:04;102020.91;;;0.27;83.82
26443;BME280;5563;52.296;6.806;2023-04-27T01:30:37;102012.28;;;0.20;84.18
26443;BME280;5563;52.296;6.806;2023-04-27T01:33:11;102027.97;;;0.23;84.01
26443;BME280;5563;52.296;6.806;2023-04-27T01:35:44;102015.13;;;0.10;84.09
26443;BME280;5563;52.296;6.806;2023-04-27T01:38:11;102022.16;;;0.08;84.33
26443;BME280;5563;52.296;6.806;2023-04-27T01:40:45;102024.81;;;0.06;84.13
26443;BME280;5563;52.296;6.806;2023-04-27T01:43:12;102042.97;;;0.17;84.36
26443;BME280;5563;52.296;6.806;2023-04-27T01:45:45;102019.69;;;0.00;84.43
26443;BME280;5563;52.296;6.806;2023-04-27T01:48:14;102040.47;;;0.11;84.47
26443;BME280;5563;52.296;6.806;2023-04-27T01:50:47;102017.81;;;0.07;84.77
26443;BME280;5563;52.296;6.806;2023-04-27T01:53:14;102020.34;;;0.11;84.70
26443;BME280;5563;52.296;6.806;2023-04-27T01:55:47;102030.00;;;0.09;84.69
26443;BME280;5563;52.296;6.806;2023-04-27T01:58:21;102001.34;;;-0.02;84.35
26443;BME280;5563;52.296;6.806;2023-04-27T02:00:47;102001.34;;;0.00;84.94
26443;BME280;5563;52.296;6.806;2023-04-27T02:03:26;102015.28;;;0.02;84.61
26443;BME280;5563;52.296;6.806;2023-04-27T02:06:00;102014.47;;;-0.02;84.22
26443;BME280;5563;52.296;6.806;2023-04-27T02:08:34;102021.50;;;-0.05;84.40
26443;BME280;5563;52.296;6.806;2023-04-27T02:11:01;102019.97;;;-0.15;84.66
26443;BME280;5563;52.296;6.806;2023-04-27T02:13:41;102016.44;;;-0.13;84.83
26443;BME280;5563;52.296;6.806;2023-04-27T02:16:08;102013.13;;;-0.22;85.00
26443;BME280;5563;52.296;6.806;2023-04-27T02:18:42;102008.78;;;-0.25;84.90
26443;BME280;5563;52.296;6.806;2023-04-27T02:21:15;102039.06;;;-0.09;84.79
26443;BME280;5563;52.296;6.806;2023-04-27T02:23:42;102026.94;;;-0.13;85.42
26443;BME280;5563;52.296;6.806;2023-04-27T02:26:17;102000.94;;;-0.26;85.32
26443;BME280;5563;52.296;6.806;2023-04-27T02:28:45;102032.97;;;-0.11;85.30
26443;BME280;5563;52.296;6.806;2023-04-27T02:31:22;102020.06;;;-0.20;85.27
26443;BME280;5563;52.296;6.806;2023-04-27T02:33:49;102021.75;;;-0.17;85.33
26443;BME280;5563;52.296;6.806;2023-04-27T02:36:22;101996.69;;;-0.32;85.29
26443;BME280;5563;52.296;6.806;2023-04-27T02:38:49;102020.06;;;-0.20;85.66
26443;BME280;5563;52.296;6.806;2023-04-27T02:41:22;102007.94;;;-0.25;85.36
26443;BME280;5563;52.296;6.806;2023-04-27T02:43:49;102015.84;;;-0.27;85.61
26443;BME280;5563;52.296;6.806;2023-04-27T02:46:23;102002.81;;;-0.33;86.00
26443;BME280;5563;52.296;6.806;2023-04-27T02:48:51;102009.75;;;-0.29;85.99
26443;BME280;5563;52.296;6.806;2023-04-27T02:51:25;102014.06;;;-0.26;85.89
26443;BME280;5563;52.296;6.806;2023-04-27T02:53:52;102008.94;;;-0.34;85.89
26443;BME280;5563;52.296;6.806;2023-04-27T02:56:25;101986.56;;;-0.50;85.85
26443;BME280;5563;52.296;6.806;2023-04-27T02:58:52;102009.88;;;-0.36;85.75
26443;BME280;5563;52.296;6.806;2023-04-27T03:01:25;102009.06;;;-0.40;85.58
26443;BME280;5563;52.296;6.806;2023-04-27T03:03:53;101995.34;;;-0.54;85.89
26443;BME280;5563;52.296;6.806;2023-04-27T03:06:26;102006.53;;;-0.46;85.99
26443;BME280;5563;52.296;6.806;2023-04-27T03:09:00;101990.13;;;-0.55;85.72
26443;BME280;5563;52.296;6.806;2023-04-27T03:11:27;102008.28;;;-0.45;85.90
26443;BME280;5563;52.296;6.806;2023-04-27T03:14:13;102016.19;;;-0.48;85.92
26443;BME280;5563;52.296;6.806;2023-04-27T03:16:43;102014.56;;;-0.53;85.57
26443;BME280;5563;52.296;6.806;2023-04-27T03:19:17;102007.63;;;-0.57;85.87
26443;BME280;5563;52.296;6.806;2023-04-27T03:21:44;102006.75;;;-0.58;86.19
26443;BME280;5563;52.296;6.806;2023-04-27T03:24:17;102002.31;;;-0.54;86.10
26443;BME280;5563;52.296;6.806;2023-04-27T03:26:44;101989.44;;;-0.66;85.92
26443;BME280;5563;52.296;6.806;2023-04-27T03:29:17;101969.44;;;-0.70;86.15
26443;BME280;5563;52.296;6.806;2023-04-27T03:31:44;101981.66;;;-0.71;86.02
26443;BME280;5563;52.296;6.806;2023-04-27T03:34:18;101979.13;;;-0.75;85.99
26443;BME280;5563;52.296;6.806;2023-04-27T03:36:46;102009.56;;;-0.68;85.93
26443;BME280;5563;52.296;6.806;2023-04-27T03:39:20;102014.88;;;-0.74;86.12
26443;BME280;5563;52.296;6.806;2023-04-27T03:41:47;101990.69;;;-0.90;86.35
26443;BME280;5563;52.296;6.806;2023-04-27T03:44:20;101989.84;;;-0.92;86.33
26443;BME280;5563;52.296;6.806;2023-04-27T03:46:52;101997.81;;;-0.98;86.11
26443;BME280;5563;52.296;6.806;2023-04-27T03:49:19;102029.97;;;-0.90;86.26
26443;BME280;5563;52.296;6.806;2023-04-27T03:51:52;102028.31;;;-0.97;86.04
26443;BME280;5563;52.296;6.806;2023-04-27T03:54:19;102031.88;;;-0.99;86.18
26443;BME280;5563;52.296;6.806;2023-04-27T03:56:54;102031.03;;;-1.04;86.74
26443;BME280;5563;52.296;6.806;2023-04-27T03:59:21;102035.44;;;-1.05;86.74
26443;BME280;5563;52.296;6.806;2023-04-27T04:01:54;102026.75;;;-1.08;86.71
26443;BME280;5563;52.296;6.806;2023-04-27T04:04:26;102036.31;;;-1.06;86.61
26443;BME280;5563;52.296;6.806;2023-04-27T04:07:01;102020.78;;;-1.18;86.80
26443;BME280;5563;52.296;6.806;2023-04-27T04:09:31;102036.31;;;-1.06;86.76
26443;BME280;5563;52.296;6.806;2023-04-27T04:12:05;102018.16;;;-1.18;86.69
26443;BME280;5563;52.296;6.806;2023-04-27T04:14:45;102012.16;;;-1.25;86.63
26443;BME280;5563;52.296;6.806;2023-04-27T04:17:21;102027.75;;;-1.19;86.59
26443;BME280;5563;52.296;6.806;2023-04-27T04:19:48;102015.53;;;-1.17;86.56
26443;BME280;5563;52.296;6.806;2023-04-27T04:22:14;102025.03;;;-1.11;86.58
26443;BME280;5563;52.296;6.806;2023-04-27T04:24:47;102031.94;;;-1.05;86.28
26443;BME280;5563;52.296;6.806;2023-04-27T04:27:14;102043.28;;;-1.05;86.53
26443;BME280;5563;52.296;6.806;2023-04-27T04:29:47;102041.53;;;-1.03;86.51
26443;BME280;5563;52.296;6.806;2023-04-27T04:32:14;102045.78;;;-0.99;86.58
26443;BME280;5563;52.296;6.806;2023-04-27T04:34:51;102030.34;;;-1.14;86.55
26443;BME280;5563;52.296;6.806;2023-04-27T04:37:17;102045.91;;;-1.05;86.50
26443;BME280;5563;52.296;6.806;2023-04-27T04:39:44;102058.06;;;-1.02;86.47
26443;BME280;5563;52.296;6.806;2023-04-27T04:42:17;102042.50;;;-1.13;86.66
26443;BME280;5563;52.296;6.806;2023-04-27T04:44:50;102053.69;;;-1.00;86.52
26443;BME280;5563;52.296;6.806;2023-04-27T04:47:18;102048.41;;;-0.96;86.78
26443;BME280;5563;52.296;6.806;2023-04-27T04:49:50;102041.38;;;-0.92;86.54
26443;BME280;5563;52.296;6.806;2023-04-27T04:52:17;102047.38;;;-0.87;86.49
26443;BME280;5563;52.296;6.806;2023-04-27T04:54:51;102050.78;;;-0.81;86.70
26443;BME280;5563;52.296;6.806;2023-04-27T04:57:18;102051.44;;;-0.68;86.87
26443;BME280;5563;52.296;6.806;2023-04-27T04:59:45;102050.53;;;-0.67;86.83
26443;BME280;5563;52.296;6.806;2023-04-27T05:02:19;102034.06;;;-0.74;86.29
26443;BME280;5563;52.296;6.806;2023-04-27T05:04:46;102031.38;;;-0.68;86.48
26443;BME280;5563;52.296;6.806;2023-04-27T05:07:20;102036.50;;;-0.62;86.63
26443;BME280;5563;52.296;6.806;2023-04-27T05:09:50;102033.81;;;-0.57;86.60
26443;BME280;5563;52.296;6.806;2023-04-27T05:12:24;102045.91;;;-0.50;86.76
26443;BME280;5563;52.296;6.806;2023-04-27T05:15:04;102051.97;;;-0.47;86.62
26443;BME280;5563;52.296;6.806;2023-04-27T05:17:38;102051.91;;;-0.44;85.62
26443;BME280;5563;52.296;6.806;2023-04-27T05:20:05;102059.63;;;-0.35;85.73
26443;BME280;5563;52.296;6.806;2023-04-27T05:22:41;102061.19;;;-0.23;84.53
26443;BME280;5563;52.296;6.806;2023-04-27T05:25:08;102049.63;;;-0.13;84.43
26443;BME280;5563;52.296;6.806;2023-04-27T05:27:42;102055.53;;;-0.01;85.18
26443;BME280;5563;52.296;6.806;2023-04-27T05:30:09;102045.06;;;-0.02;85.34
26443;BME280;5563;52.296;6.806;2023-04-27T05:32:43;102063.19;;;0.10;85.47
26443;BME280;5563;52.296;6.806;2023-04-27T05:35:16;102030.28;;;-0.06;85.50
26443;BME280;5563;52.296;6.806;2023-04-27T05:37:50;102064.75;;;0.20;85.50
26443;BME280;5563;52.296;6.806;2023-04-27T05:40:16;102058.63;;;0.20;85.44
26443;BME280;5563;52.296;6.806;2023-04-27T05:42:50;102060.06;;;0.36;85.57
26443;BME280;5563;52.296;6.806;2023-04-27T05:45:16;102066.91;;;0.44;85.55
26443;BME280;5563;52.296;6.806;2023-04-27T05:47:43;102067.53;;;0.55;85.37
26443;BME280;5563;52.296;6.806;2023-04-27T05:50:17;102048.44;;;0.49;85.50
26443;BME280;5563;52.296;6.806;2023-04-27T05:52:44;102065.59;;;0.65;85.41
26443;BME280;5563;52.296;6.806;2023-04-27T05:55:18;102055.81;;;0.71;85.33
26443;BME280;5563;52.296;6.806;2023-04-27T05:57:45;102068.47;;;0.94;84.91
26443;BME280;5563;52.296;6.806;2023-04-27T06:00:33;102063.84;;;1.05;84.59
26443;BME280;5563;52.296;6.806;2023-04-27T06:03:00;102050.56;;;1.11;84.40
26443;BME280;5563;52.296;6.806;2023-04-27T06:05:34;102075.56;;;1.29;83.77
26443;BME280;5563;52.296;6.806;2023-04-27T06:08:08;102085.59;;;1.48;83.86
26443;BME280;5563;52.296;6.806;2023-04-27T06:10:40;102088.78;;;1.61;83.51
26443;BME280;5563;52.296;6.806;2023-04-27T06:13:07;102087.69;;;1.69;83.63
26443;BME280;5563;52.296;6.806;2023-04-27T06:15:48;102083.16;;;1.76;83.92
26443;BME280;5563;52.296;6.806;2023-04-27T06:18:16;102088.97;;;1.88;83.73
26443;BME280;5563;52.296;6.806;2023-04-27T06:20:50;102090.34;;;2.03;83.33
26443;BME280;5563;52.296;6.806;2023-04-27T06:23:17;102089.13;;;2.16;82.89
26443;BME280;5563;52.296;6.806;2023-04-27T06:25:49;102086.31;;;2.22;82.18
26443;BME280;5563;52.296;6.806;2023-04-27T06:28:22;102083.34;;;2.36;81.85
26443;BME280;5563;52.296;6.806;2023-04-27T06:30:49;102088.03;;;2.55;82.15
26443;BME280;5563;52.296;6.806;2023-04-27T06:33:23;102089.50;;;2.65;81.79
26443;BME280;5563;52.296;6.806;2023-04-27T06:35:49;102088.25;;;2.78;81.86
26443;BME280;5563;52.296;6.806;2023-04-27T06:38:23;102080.94;;;2.88;81.57
26443;BME280;5563;52.296;6.806;2023-04-27T06:40:50;102086.59;;;3.03;81.74
26443;BME280;5563;52.296;6.806;2023-04-27T06:43:25;102089.72;;;3.16;81.44
26443;BME280;5563;52.296;6.806;2023-04-27T06:45:52;102084.28;;;3.22;80.84
26443;BME280;5563;52.296;6.806;2023-04-27T06:48:19;102083.75;;;3.39;81.00
26443;BME280;5563;52.296;6.806;2023-04-27T06:50:53;102087.72;;;3.52;80.66
26443;BME280;5563;52.296;6.806;2023-04-27T06:53:26;102082.91;;;3.64;80.12
26443;BME280;5563;52.296;6.806;2023-04-27T06:56:00;102087.66;;;3.81;79.94
26443;BME280;5563;52.296;6.806;2023-04-27T06:58:34;102090.75;;;3.93;79.94
26443;BME280;5563;52.296;6.806;2023-04-27T07:01:00;102087.78;;;4.02;79.36
26443;BME280;5563;52.296;6.806;2023-04-27T07:03:28;102083.91;;;4.12;79.24
26443;BME280;5563;52.296;6.806;2023-04-27T07:06:02;102078.91;;;4.29;79.07
26443;BME280;5563;52.296;6.806;2023-04-27T07:08:36;102087.03;;;4.48;78.56
26443;BME280;5563;52.296;6.806;2023-04-27T07:11:13;102090.03;;;4.62;78.30
26443;BME280;5563;52.296;6.806;2023-04-27T07:13:48;102086.06;;;4.74;78.11
26443;BME280;5563;52.296;6.806;2023-04-27T07:16:21;102089.13;;;4.86;77.78
26443;BME280;5563;52.296;6.806;2023-04-27T07:18:48;102086.81;;;5.00;76.26
26443;BME280;5563;52.296;6.806;2023-04-27T07:21:22;102086.41;;;5.11;76.36
26443;BME280;5563;52.296;6.806;2023-04-27T07:23:48;102086.06;;;5.20;75.95
26443;BME280;5563;52.296;6.806;2023-04-27T07:26:21;102079.72;;;5.24;76.30
26443;BME280;5563;52.296;6.806;2023-04-27T07:28:56;102083.63;;;5.37;76.26
26443;BME280;5563;52.296;6.806;2023-04-27T07:31:23;102080.63;;;5.46;76.00
26443;BME280;5563;52.296;6.806;2023-04-27T07:33:57;102073.16;;;5.56;75.16
26443;BME280;5563;52.296;6.806;2023-04-27T07:36:32;102083.38;;;5.65;75.43
26443;BME280;5563;52.296;6.806;2023-04-27T07:38:59;102069.09;;;5.69;74.55
26443;BME280;5563;52.296;6.806;2023-04-27T07:41:32;102088.69;;;5.86;73.27
26443;BME280;5563;52.296;6.806;2023-04-27T07:44:00;102074.31;;;5.92;73.43
26443;BME280;5563;52.296;6.806;2023-04-27T07:46:33;102082.00;;;5.98;72.93
26443;BME280;5563;52.296;6.806;2023-04-27T07:49:07;102076.19;;;6.10;73.43
26443;BME280;5563;52.296;6.806;2023-04-27T07:51:33;102074.06;;;6.18;70.46
26443;BME280;5563;52.296;6.806;2023-04-27T07:54:07;102080.69;;;6.28;70.48
26443;BME280;5563;52.296;6.806;2023-04-27T07:56:34;102077.53;;;6.40;71.04
26443;BME280;5563;52.296;6.806;2023-04-27T07:59:08;102080.50;;;6.52;71.90
26443;BME280;5563;52.296;6.806;2023-04-27T08:01:41;102083.31;;;6.68;70.04
26443;BME280;5563;52.296;6.806;2023-04-27T08:04:09;102075.66;;;6.81;68.97
26443;BME280;5563;52.296;6.806;2023-04-27T08:06:44;102077.19;;;6.86;67.93
26443;BME280;5563;52.296;6.806;2023-04-27T08:09:12;102080.25;;;6.96;67.93
26443;BME280;5563;52.296;6.806;2023-04-27T08:11:46;102080.34;;;7.13;67.26
26443;BME280;5563;52.296;6.806;2023-04-27T08:14:35;102082.56;;;7.22;66.05
26443;BME280;5563;52.296;6.806;2023-04-27T08:17:09;102077.03;;;7.26;66.23
26443;BME280;5563;52.296;6.806;2023-04-27T08:19:37;102070.25;;;7.38;64.35
26443;BME280;5563;52.296;6.806;2023-04-27T08:22:10;102080.22;;;7.51;64.81
26443;BME280;5563;52.296;6.806;2023-04-27T08:24:44;102080.72;;;7.59;65.06
26443;BME280;5563;52.296;6.806;2023-04-27T08:27:17;102073.53;;;7.61;65.09
26443;BME280;5563;52.296;6.806;2023-04-27T08:29:47;102076.53;;;7.73;65.39
26443;BME280;5563;52.296;6.806;2023-04-27T08:32:21;102069.81;;;7.83;64.87
26443;BME280;5563;52.296;6.806;2023-04-27T08:34:47;102076.94;;;7.99;62.50
26443;BME280;5563;52.296;6.806;2023-04-27T08:37:20;102077.72;;;8.01;60.11
26443;BME280;5563;52.296;6.806;2023-04-27T08:39:47;102075.88;;;8.03;60.95
26443;BME280;5563;52.296;6.806;2023-04-27T08:42:21;102081.97;;;8.05;60.71
26443;BME280;5563;52.296;6.806;2023-04-27T08:44:47;102077.81;;;8.17;61.32
26443;BME280;5563;52.296;6.806;2023-04-27T08:47:20;102072.59;;;8.32;60.76
26443;BME280;5563;52.296;6.806;2023-04-27T08:50:07;102081.56;;;8.47;57.82
26443;BME280;5563;52.296;6.806;2023-04-27T08:52:43;102067.22;;;8.66;59.81
26443;BME280;5563;52.296;6.806;2023-04-27T08:55:10;102070.50;;;8.87;58.00
26443;BME280;5563;52.296;6.806;2023-04-27T08:57:54;102075.69;;;9.21;59.22
26443;BME280;5563;52.296;6.806;2023-04-27T09:00:40;102057.75;;;9.40;57.29
26443;BME280;5563;52.296;6.806;2023-04-27T09:03:23;102077.06;;;9.75;56.37
26443;BME280;5563;52.296;6.806;2023-04-27T09:05:57;102066.06;;;9.95;55.68
26443;BME280;5563;52.296;6.806;2023-04-27T09:09:01;102068.59;;;10.28;55.38
26443;BME280;5563;52.296;6.806;2023-04-27T09:12:21;102061.69;;;10.39;50.40
26443;BME280;5563;52.296;6.806;2023-04-27T09:15:20;102056.91;;;10.30;49.55
26443;BME280;5563;52.296;6.806;2023-04-27T09:18:21;102059.59;;;10.15;52.86
26443;BME280;5563;52.296;6.806;2023-04-27T09:21:09;102054.00;;;10.19;49.53
26443;BME280;5563;52.296;6.806;2023-04-27T09:23:57;102055.25;;;10.28;52.74
26443;BME280;5563;52.296;6.806;2023-04-27T09:27:21;102051.97;;;10.66;49.62
26443;BME280;5563;52.296;6.806;2023-04-27T09:37:08;102049.72;;;11.56;48.44
26443;BME280;5563;52.296;6.806;2023-04-27T09:40:12;102049.63;;;11.84;46.97
26443;BME280;5563;52.296;6.806;2023-04-27T09:43:16;102044.34;;;12.09;46.70
26443;BME280;5563;52.296;6.806;2023-04-27T09:46:15;102035.72;;;12.43;47.86
26443;BME280;5563;52.296;6.806;2023-04-27T09:52:21;102042.53;;;12.85;46.32
26443;BME280;5563;52.296;6.806;2023-04-27T09:55:27;102033.22;;;12.90;45.54
26443;BME280;5563;52.296;6.806;2023-04-27T10:05:29;102042.66;;;12.83;41.44
26443;BME280;5563;52.296;6.806;2023-04-27T10:12:27;102037.91;;;12.99;42.57
26443;BME280;5563;52.296;6.806;2023-04-27T10:19:21;102015.28;;;13.52;40.13
26443;BME280;5563;52.296;6.806;2023-04-27T10:22:22;102007.28;;;13.40;39.93
26443;BME280;5563;52.296;6.806;2023-04-27T10:28:22;102011.72;;;13.75;39.85
26443;BME280;5563;52.296;6.806;2023-04-27T10:31:09;102002.59;;;13.78;37.64
26443;BME280;5563;52.296;6.806;2023-04-27T10:34:21;101998.81;;;13.80;39.33
26443;BME280;5563;52.296;6.806;2023-04-27T10:37:22;101993.78;;;13.65;38.11
26443;BME280;5563;52.296;6.806;2023-04-27T10:40:31;101994.34;;;13.57;37.57
26443;BME280;5563;52.296;6.806;2023-04-27T10:47:21;101998.47;;;13.85;40.11
26443;BME280;5563;52.296;6.806;2023-04-27T10:50:22;101981.69;;;13.59;39.73
26443;BME280;5563;52.296;6.806;2023-04-27T10:53:16;101985.28;;;13.24;36.21
26443;BME280;5563;52.296;6.806;2023-04-27T11:02:25;102004.84;;;12.88;36.75
26443;BME280;5563;52.296;6.806;2023-04-27T11:09:24;101989.22;;;13.31;37.78
26443;BME280;5563;52.296;6.806;2023-04-27T11:12:22;101991.63;;;13.81;37.50
26443;BME280;5563;52.296;6.806;2023-04-27T11:15:10;101994.81;;;14.21;34.72
26443;BME280;5563;52.296;6.806;2023-04-27T11:18:07;101993.50;;;14.37;35.44
26443;BME280;5563;52.296;6.806;2023-04-27T11:21:21;101990.84;;;14.48;35.18
26443;BME280;5563;52.296;6.806;2023-04-27T11:24:15;101979.38;;;14.57;35.19
26443;BME280;5563;52.296;6.806;2023-04-27T11:27:06;101985.97;;;14.64;34.55
26443;BME280;5563;52.296;6.806;2023-04-27T11:36:23;101987.66;;;14.65;35.88
26443;BME280;5563;52.296;6.806;2023-04-27T11:39:21;101992.28;;;14.85;32.59
26443;BME280;5563;52.296;6.806;2023-04-27T11:42:24;101981.41;;;14.87;36.28
26443;BME280;5563;52.296;6.806;2023-04-27T11:55:07;101973.31;;;15.20;33.10
26443;BME280;5563;52.296;6.806;2023-04-27T11:58:23;101982.53;;;15.38;35.01
26443;BME280;5563;52.296;6.806;2023-04-27T12:01:09;101977.84;;;15.08;32.87
26443;BME280;5563;52.296;6.806;2023-04-27T12:04:17;101980.34;;;14.56;33.96
26443;BME280;5563;52.296;6.806;2023-04-27T12:07:21;101981.47;;;14.65;34.95
26443;BME280;5563;52.296;6.806;2023-04-27T12:10:20;101973.84;;;15.03;33.79
26443;BME280;5563;52.296;6.806;2023-04-27T12:13:20;101964.84;;;15.36;33.25
26443;BME280;5563;52.296;6.806;2023-04-27T12:16:20;101961.88;;;15.07;32.22
26443;BME280;5563;52.296;6.806;2023-04-27T12:19:21;101963.53;;;15.19;33.53
26443;BME280;5563;52.296;6.806;2023-04-27T12:22:20;101957.91;;;15.65;32.05
26443;BME280;5563;52.296;6.806;2023-04-27T12:25:18;101960.63;;;16.06;32.29
26443;BME280;5563;52.296;6.806;2023-04-27T12:28:20;101961.84;;;16.02;32.13
26443;BME280;5563;52.296;6.806;2023-04-27T12:31:12;101961.88;;;15.81;33.22
26443;BME280;5563;52.296;6.806;2023-04-27T12:37:21;101963.22;;;15.96;32.03
26443;BME280;5563;52.296;6.806;2023-04-27T12:40:21;101954.03;;;16.19;31.96
26443;BME280;5563;52.296;6.806;2023-04-27T12:47:03;101955.50;;;16.54;31.37
26443;BME280;5563;52.296;6.806;2023-04-27T12:50:21;101954.56;;;16.55;31.16
26443;BME280;5563;52.296;6.806;2023-04-27T12:53:20;101949.03;;;16.56;32.22
26443;BME280;5563;52.296;6.806;2023-04-27T12:56:16;101946.53;;;16.83;30.58
26443;BME280;5563;52.296;6.806;2023-04-27T12:59:20;101953.63;;;16.75;30.74
26443;BME280;5563;52.296;6.806;2023-04-27T13:02:23;101949.19;;;16.64;30.69
26443;BME280;5563;52.296;6.806;2023-04-27T13:05:23;101945.47;;;16.56;31.49
26443;BME280;5563;52.296;6.806;2023-04-27T13:08:49;101939.09;;;16.06;30.31
26443;BME280;5563;52.296;6.806;2023-04-27T13:11:40;101936.97;;;15.37;31.02
26443;BME280;5563;52.296;6.806;2023-04-27T13:14:19;101935.56;;;14.79;32.25
26443;BME280;5563;52.296;6.806;2023-04-27T13:17:06;101939.97;;;14.36;33.61
26443;BME280;5563;52.296;6.806;2023-04-27T13:19:45;101923.72;;;14.15;35.62
26443;BME280;5563;52.296;6.806;2023-04-27T13:22:45;101930.44;;;14.21;35.36
26443;BME280;5563;52.296;6.806;2023-04-27T13:26:04;101929.25;;;14.58;35.21
26443;BME280;5563;52.296;6.806;2023-04-27T13:28:43;101913.09;;;14.80;32.66
26443;BME280;5563;52.296;6.806;2023-04-27T13:35:03;101913.41;;;15.40;31.08
26443;BME280;5563;52.296;6.806;2023-04-27T13:37:40;101889.66;;;15.56;32.05
26443;BME280;5563;52.296;6.806;2023-04-27T13:40:32;101913.19;;;16.05;31.91
26443;BME280;5563;52.296;6.806;2023-04-27T13:43:12;101910.50;;;16.35;30.82
26443;BME280;5563;52.296;6.806;2023-04-27T13:45:50;101909.03;;;16.52;30.40
26443;BME280;5563;52.296;6.806;2023-04-27T13:49:03;101902.44;;;16.65;30.00
26443;BME280;5563;52.296;6.806;2023-04-27T13:52:11;101902.06;;;16.19;30.16
26443;BME280;5563;52.296;6.806;2023-04-27T13:54:57;101900.28;;;15.78;31.92
26443;BME280;5563;52.296;6.806;2023-04-27T13:57:38;101901.19;;;15.36;31.97
26443;BME280;5563;52.296;6.806;2023-04-27T14:00:26;101879.97;;;15.01;32.92
26443;BME280;5563;52.296;6.806;2023-04-27T14:03:00;101891.97;;;14.86;32.33
26443;BME280;5563;52.296;6.806;2023-04-27T14:05:45;101880.75;;;14.81;35.36
26443;BME280;5563;52.296;6.806;2023-04-27T14:08:19;101881.88;;;15.10;33.60
26443;BME280;5563;52.296;6.806;2023-04-27T14:11:11;101877.66;;;15.29;30.95
26443;BME280;5563;52.296;6.806;2023-04-27T14:13:44;101871.75;;;15.46;31.32
26443;BME280;5563;52.296;6.806;2023-04-27T14:16:51;101874.84;;;15.62;31.25
26443;BME280;5563;52.296;6.806;2023-04-27T14:19:26;101880.88;;;15.75;30.21
26443;BME280;5563;52.296;6.806;2023-04-27T14:22:02;101876.16;;;15.67;30.66
26443;BME280;5563;52.296;6.806;2023-04-27T14:24:52;101879.22;;;15.42;30.38
26443;BME280;5563;52.296;6.806;2023-04-27T14:27:28;101881.25;;;15.18;31.73
26443;BME280;5563;52.296;6.806;2023-04-27T14:30:06;101872.53;;;14.94;32.62
26443;BME280;5563;52.296;6.806;2023-04-27T14:32:42;101868.34;;;15.01;32.93
26443;BME280;5563;52.296;6.806;2023-04-27T14:35:10;101870.63;;;15.17;31.67
26443;BME280;5563;52.296;6.806;2023-04-27T14:37:44;101870.09;;;15.23;32.97
26443;BME280;5563;52.296;6.806;2023-04-27T14:40:25;101875.16;;;15.48;31.46
26443;BME280;5563;52.296;6.806;2023-04-27T14:43:12;101872.88;;;15.43;32.27
26443;BME280;5563;52.296;6.806;2023-04-27T14:46:01;101877.38;;;15.43;32.32
26443;BME280;5563;52.296;6.806;2023-04-27T14:48:47;101870.38;;;15.51;32.43
26443;BME280;5563;52.296;6.806;2023-04-27T14:51:24;101866.44;;;15.55;31.36
26443;BME280;5563;52.296;6.806;2023-04-27T14:54:14;101856.28;;;15.59;33.50
26443;BME280;5563;52.296;6.806;2023-04-27T14:56:48;101858.09;;;15.58;32.79
26443;BME280;5563;52.296;6.806;2023-04-27T14:59:17;101848.44;;;15.35;32.09
26443;BME280;5563;52.296;6.806;2023-04-27T15:01:51;101850.28;;;15.03;31.46
26443;BME280;5563;52.296;6.806;2023-04-27T15:04:26;101839.88;;;14.78;33.54
26443;BME280;5563;52.296;6.806;2023-04-27T15:07:03;101858.34;;;14.60;32.89
26443;BME280;5563;52.296;6.806;2023-04-27T15:09:47;101845.09;;;14.37;33.40
26443;BME280;5563;52.296;6.806;2023-04-27T15:12:31;101852.03;;;14.17;32.78
26443;BME280;5563;52.296;6.806;2023-04-27T15:15:08;101852.88;;;13.95;33.33